createdAt,value
2022-12-05T00:02:04.475Z,100296.28
2022-12-05T00:04:32.557Z,100274.16
2022-12-05T00:07:00.924Z,100302.50
2022-12-05T00:09:33.033Z,100287.69
2022-12-05T00:12:06.574Z,100168.94
2022-12-05T00:14:34.863Z,100301.66
2022-12-05T00:17:03.033Z,100301.50
2022-12-05T00:19:34.557Z,100299.75
2022-12-05T00:22:05.300Z,100272.34
2022-12-05T00:24:33.246Z,100295.38
2022-12-05T00:27:01.214Z,100299.53
2022-12-05T00:29:29.761Z,100233.19
2022-12-05T00:32:02.462Z,100259.91
2022-12-05T00:34:40.955Z,100257.28
2022-12-05T00:37:11.956Z,100290.44
2022-12-05T00:39:43.166Z,100199.53
2022-12-05T00:42:14.207Z,100161.97
2022-12-05T00:44:53.357Z,100110.84
2022-12-05T00:47:31.510Z,100219.72
2022-12-05T00:50:11.039Z,100234.63
2022-12-05T00:52:44.280Z,100179.97
2022-12-05T00:55:18.765Z,100292.69
2022-12-05T00:57:49.682Z,100277.94
2022-12-05T01:00:30.258Z,100091.00
2022-12-05T01:03:06.019Z,100167.41
2022-12-05T01:06:06.596Z,100182.94
2022-12-05T01:08:44.833Z,100082.38
2022-12-05T01:11:29.442Z,100162.25
2022-12-05T01:14:09.123Z,100187.00
2022-12-05T01:16:49.406Z,100204.81
2022-12-05T01:19:31.688Z,100088.31
2022-12-05T01:22:06.323Z,100236.78
2022-12-05T01:24:37.844Z,100177.88
2022-12-05T01:27:09.874Z,100180.03
2022-12-05T01:29:43.335Z,100205.31
2022-12-05T01:32:15.076Z,100242.59
2022-12-05T01:34:50.385Z,100245.75
2022-12-05T01:37:18.855Z,100147.28
2022-12-05T01:39:48.909Z,100286.59
2022-12-05T01:42:18.708Z,100282.28
2022-12-05T01:45:09.814Z,100275.31
2022-12-05T01:47:44.089Z,100281.63
2022-12-05T01:50:14.144Z,100269.44
2022-12-05T01:52:42.450Z,100282.41
2022-12-05T01:55:32.148Z,100243.84
2022-12-05T01:58:02.374Z,100072.66
2022-12-05T02:00:30.431Z,100180.63
2022-12-05T02:03:06.539Z,100261.34
2022-12-05T02:05:37.785Z,100229.22
2022-12-05T02:08:10.315Z,100266.81
2022-12-05T02:10:50.644Z,100247.31
2022-12-05T02:13:52.473Z,100251.25
2022-12-05T02:16:51.853Z,100243.25
2022-12-05T02:19:35.547Z,100264.84
2022-12-05T02:22:43.932Z,100243.84
2022-12-05T02:25:33.001Z,100228.47
2022-12-05T02:28:34.147Z,100236.97
2022-12-05T02:31:18.757Z,100245.88
2022-12-05T02:34:28.492Z,100225.19
2022-12-05T02:37:18.555Z,100187.78
2022-12-05T02:40:07.612Z,100213.72
2022-12-05T02:43:01.612Z,100124.53
2022-12-05T02:45:45.473Z,100123.16
2022-12-05T02:48:18.187Z,100210.03
2022-12-05T02:50:49.477Z,100220.47
2022-12-05T02:53:21.660Z,100198.91
2022-12-05T02:55:58.182Z,100217.53
2022-12-05T02:58:34.487Z,100214.59
2022-12-05T03:01:06.094Z,100208.63
2022-12-05T03:03:38.134Z,100169.06
2022-12-05T03:06:14.619Z,100207.97
2022-12-05T03:09:15.000Z,100213.28
2022-12-05T03:11:49.792Z,100184.88
2022-12-05T03:14:28.269Z,100173.03
2022-12-05T03:17:04.965Z,100177.16
2022-12-05T03:20:11.342Z,100200.19
2022-12-05T03:22:49.751Z,100174.75
2022-12-05T03:25:18.278Z,100186.59
2022-12-05T03:28:31.127Z,100146.22
2022-12-05T03:31:08.596Z,100180.69
2022-12-05T03:33:45.076Z,100175.78
2022-12-05T03:36:21.942Z,100182.00
2022-12-05T03:39:24.087Z,100175.72
2022-12-05T03:42:05.960Z,100166.25
2022-12-05T03:44:53.401Z,100182.72
2022-12-05T03:47:32.182Z,100179.50
2022-12-05T03:50:12.422Z,100181.88
2022-12-05T03:53:17.905Z,100188.78
2022-12-05T03:55:40.529Z,100175.06
2022-12-05T03:58:17.428Z,100193.72
2022-12-05T04:00:51.040Z,100180.88
2022-12-05T04:03:39.157Z,100155.31
2022-12-05T04:06:37.495Z,100189.94
2022-12-05T04:09:21.371Z,100198.63
2022-12-05T04:12:03.631Z,100139.38
2022-12-05T04:14:58.263Z,100132.06
2022-12-05T04:17:57.386Z,100194.03
2022-12-05T04:20:57.711Z,100205.28
2022-12-05T04:23:26.949Z,100198.31
2022-12-05T04:26:21.855Z,100100.78
2022-12-05T04:28:59.255Z,100174.69
2022-12-05T04:31:41.559Z,100197.38
2022-12-05T04:34:14.932Z,100130.91
2022-12-05T04:36:54.828Z,100189.94
2022-12-05T04:39:47.583Z,100207.13
2022-12-05T04:42:26.222Z,100179.56
2022-12-05T04:45:05.715Z,100196.53
2022-12-05T04:47:45.429Z,100154.16
2022-12-05T04:50:15.151Z,100181.38
2022-12-05T04:52:48.816Z,100182.97
2022-12-05T04:55:26.192Z,100179.47
2022-12-05T04:58:23.411Z,100188.94
2022-12-05T05:01:23.122Z,100187.34
2022-12-05T05:04:08.056Z,100089.69
2022-12-05T05:06:41.189Z,100190.69
2022-12-05T05:09:10.351Z,100170.09
2022-12-05T05:11:38.634Z,100144.22
2022-12-05T05:14:09.164Z,100191.63
2022-12-05T05:16:42.343Z,100140.34
2022-12-05T05:19:12.199Z,100110.44
2022-12-05T05:21:43.298Z,100194.91
2022-12-05T05:24:16.788Z,100191.16
2022-12-05T05:26:52.507Z,100159.09
2022-12-05T05:29:23.739Z,100101.69
2022-12-05T05:31:51.903Z,100125.91
2022-12-05T05:34:19.730Z,100183.06
2022-12-05T05:36:53.325Z,100159.88
2022-12-05T05:39:21.358Z,100161.25
2022-12-05T05:41:54.272Z,100158.72
2022-12-05T05:44:25.277Z,100029.13
2022-12-05T05:46:53.344Z,100148.06
2022-12-05T05:49:21.470Z,100130.31
2022-12-05T05:51:49.548Z,100098.22
2022-12-05T05:54:17.915Z,100108.75
2022-12-05T05:56:48.900Z,100167.91
2022-12-05T05:59:16.979Z,100176.00
2022-12-05T06:01:44.875Z,100165.44
2022-12-05T06:04:13.014Z,100165.66
2022-12-05T06:06:41.476Z,100167.09
2022-12-05T06:09:09.412Z,100102.81
2022-12-05T06:11:37.780Z,100109.16
2022-12-05T06:14:09.679Z,100133.84
2022-12-05T06:16:38.022Z,100162.13
2022-12-05T06:19:05.991Z,100132.28
2022-12-05T06:21:33.991Z,100165.31
2022-12-05T06:24:02.257Z,100102.41
2022-12-05T06:26:30.277Z,100162.91
2022-12-05T06:29:03.113Z,100147.25
2022-12-05T06:31:34.212Z,100178.22
2022-12-05T06:34:04.557Z,100189.50
2022-12-05T06:36:32.747Z,100180.84
2022-12-05T06:39:01.198Z,100193.00
2022-12-05T06:41:29.306Z,100162.31
2022-12-05T06:44:02.506Z,100190.44
2022-12-05T06:46:31.174Z,100189.59
2022-12-05T06:49:02.354Z,100202.41
2022-12-05T06:51:34.777Z,100191.88
2022-12-05T06:54:05.580Z,100069.66
2022-12-05T06:56:33.632Z,100078.94
2022-12-05T06:59:01.534Z,100070.72
2022-12-05T07:01:39.352Z,100195.47
2022-12-05T07:04:20.821Z,100162.19
2022-12-05T07:06:51.020Z,100158.91
2022-12-05T07:09:46.592Z,100195.31
2022-12-05T07:12:22.077Z,100190.81
2022-12-05T07:14:50.487Z,100149.09
2022-12-05T07:17:22.715Z,100186.50
2022-12-05T07:19:52.517Z,100150.22
2022-12-05T07:22:23.059Z,100190.03
2022-12-05T07:24:54.583Z,100186.63
2022-12-05T07:27:27.263Z,100115.09
2022-12-05T07:29:57.516Z,100160.06
2022-12-05T07:32:25.851Z,100186.34
2022-12-05T07:34:55.640Z,100186.81
2022-12-05T07:37:24.202Z,100148.31
2022-12-05T07:39:57.573Z,100184.44
2022-12-05T07:42:26.006Z,100188.66
2022-12-05T07:44:56.065Z,100153.56
2022-12-05T07:47:24.548Z,100166.66
2022-12-05T07:49:52.714Z,100156.25
2022-12-05T07:52:25.202Z,100179.53
2022-12-05T07:54:53.413Z,100200.56
2022-12-05T07:57:23.722Z,100198.56
2022-12-05T07:59:52.086Z,100210.94
2022-12-05T08:02:23.402Z,100119.25
2022-12-05T08:04:51.781Z,100148.63
2022-12-05T08:07:19.846Z,100152.94
2022-12-05T08:09:50.280Z,100184.97
2022-12-05T08:12:20.854Z,100185.16
2022-12-05T08:14:51.159Z,100192.84
2022-12-05T08:17:19.397Z,100159.75
2022-12-05T08:19:47.450Z,100067.38
2022-12-05T08:22:16.807Z,100182.69
2022-12-05T08:24:44.786Z,100181.50
2022-12-05T08:27:12.867Z,100194.94
2022-12-05T08:29:42.992Z,100201.59
2022-12-05T08:32:11.027Z,100159.97
2022-12-05T08:34:39.179Z,100180.94
2022-12-05T08:37:09.997Z,100139.13
2022-12-05T08:39:48.518Z,100145.09
2022-12-05T08:42:16.832Z,100192.47
2022-12-05T08:44:44.672Z,100161.41
2022-12-05T08:47:16.719Z,100176.03
2022-12-05T08:49:46.504Z,100116.34
2022-12-05T08:52:30.417Z,99985.22
2022-12-05T08:55:14.003Z,100001.13
2022-12-05T08:57:45.041Z,100116.78
2022-12-05T09:00:26.085Z,100138.03
2022-12-05T09:03:01.436Z,100112.78
2022-12-05T09:05:55.724Z,100093.00
2022-12-05T09:11:28.972Z,100096.25
2022-12-05T09:14:11.134Z,100000.44
2022-12-05T09:16:52.346Z,100098.41
2022-12-05T09:19:41.637Z,100115.66
2022-12-05T09:22:27.364Z,100049.91
2022-12-05T09:25:11.395Z,99973.84
2022-12-05T09:27:54.576Z,100020.91
2022-12-05T09:30:36.473Z,100098.09
2022-12-05T09:33:07.502Z,100109.56
2022-12-05T09:35:49.868Z,100062.00
2022-12-05T09:38:25.637Z,100048.00
2022-12-05T09:41:13.989Z,100078.97
2022-12-05T09:44:15.097Z,100041.34
2022-12-05T09:47:26.742Z,100028.75
2022-12-05T09:50:23.409Z,99996.28
2022-12-05T09:53:26.911Z,100135.13
2022-12-05T09:56:33.345Z,100132.38
2022-12-05T09:59:06.227Z,99992.25
2022-12-05T10:02:03.433Z,100137.75
2022-12-05T10:05:00.968Z,100111.84
2022-12-05T10:07:58.505Z,100114.56
2022-12-05T10:11:01.052Z,99954.00
2022-12-05T10:14:06.725Z,100109.13
2022-12-05T10:16:57.000Z,100109.03
2022-12-05T10:19:44.607Z,100101.56
2022-12-05T10:22:51.885Z,100111.47
2022-12-05T10:25:23.082Z,100075.03
2022-12-05T10:28:04.453Z,100090.56
2022-12-05T10:30:36.407Z,100098.69
2022-12-05T10:33:22.656Z,100080.53
2022-12-05T10:35:56.885Z,100094.94
2022-12-05T10:38:31.601Z,100073.72
2022-12-05T10:41:05.579Z,100103.56
2022-12-05T10:43:41.194Z,100047.03
2022-12-05T10:46:18.442Z,100078.03
2022-12-05T10:48:49.262Z,100087.56
2022-12-05T10:51:23.679Z,100076.84
2022-12-05T10:53:53.090Z,99997.81
2022-12-05T10:56:50.068Z,100078.19
2022-12-05T10:59:30.155Z,100047.44
2022-12-05T11:01:59.899Z,100081.97
2022-12-05T11:04:47.218Z,100040.91
2022-12-05T11:07:45.871Z,100066.03
2022-12-05T11:10:33.081Z,100064.75
2022-12-05T11:13:02.302Z,100047.41
2022-12-05T11:15:32.185Z,100024.91
2022-12-05T11:18:38.653Z,100053.66
2022-12-05T11:21:13.725Z,100063.00
2022-12-05T11:23:42.403Z,100032.19
2022-12-05T11:26:45.825Z,100046.94
2022-12-05T11:29:40.573Z,100052.47
2022-12-05T11:32:22.906Z,100023.00
2022-12-05T11:35:06.754Z,100049.53
2022-12-05T11:37:58.630Z,100038.38
2022-12-05T11:40:54.854Z,100054.88
2022-12-05T11:44:02.998Z,99956.97
2022-12-05T11:46:55.426Z,99891.28
2022-12-05T11:50:12.026Z,100037.72
2022-12-05T11:53:22.339Z,100031.31
2022-12-05T11:56:36.752Z,100026.56
2022-12-05T11:59:41.749Z,100017.75
2022-12-05T12:02:50.523Z,99978.81
2022-12-05T12:06:05.092Z,100005.91
2022-12-05T12:09:13.306Z,100009.63
2022-12-05T12:12:01.807Z,100007.44
2022-12-05T12:15:05.976Z,99998.44
2022-12-05T12:17:52.453Z,99993.53
2022-12-05T12:20:52.426Z,99999.22
2022-12-05T12:23:44.813Z,99986.19
2022-12-05T12:26:42.378Z,99995.91
2022-12-05T12:29:35.422Z,99938.53
2022-12-05T12:32:25.136Z,99877.47
2022-12-05T12:35:38.660Z,99983.00
2022-12-05T12:38:22.025Z,99973.28
2022-12-05T12:41:34.407Z,99973.78
2022-12-05T12:44:21.111Z,99970.09
2022-12-05T12:46:59.039Z,99958.47
2022-12-05T12:49:52.495Z,99957.44
2022-12-05T12:52:29.246Z,99952.88
2022-12-05T12:55:25.409Z,99964.06
2022-12-05T12:58:05.476Z,99949.50
2022-12-05T13:00:51.612Z,99958.47
2022-12-05T13:03:38.531Z,99924.25
2022-12-05T13:06:21.651Z,99956.78
2022-12-05T13:09:26.805Z,99902.00
2022-12-05T13:12:06.292Z,99849.22
2022-12-05T13:14:47.027Z,99862.25
2022-12-05T13:17:21.711Z,99954.94
2022-12-05T13:19:56.263Z,99946.78
2022-12-05T13:22:30.205Z,99926.09
2022-12-05T13:25:01.046Z,99868.88
2022-12-05T13:27:29.249Z,99942.63
2022-12-05T13:30:03.560Z,99948.66
2022-12-05T13:32:45.794Z,99936.75
2022-12-05T13:35:50.408Z,99952.97
2022-12-05T13:38:56.993Z,99896.44
2022-12-05T13:42:03.024Z,99934.16
2022-12-05T13:44:38.110Z,99939.34
2022-12-05T13:47:18.241Z,99940.28
2022-12-05T13:49:57.968Z,99935.84
2022-12-05T13:52:31.369Z,99922.59
2022-12-05T13:55:37.304Z,99934.59
2022-12-05T13:58:20.039Z,99895.38
2022-12-05T14:00:50.135Z,99951.03
2022-12-05T14:03:33.769Z,99950.81
2022-12-05T14:06:01.784Z,99934.47
2022-12-05T14:08:35.842Z,99942.69
2022-12-05T14:11:10.565Z,99902.28
2022-12-05T14:13:43.811Z,99817.50
2022-12-05T14:16:26.978Z,99961.50
2022-12-05T14:19:38.541Z,99971.22
2022-12-05T14:22:15.985Z,99924.47
2022-12-05T14:24:53.436Z,99953.19
2022-12-05T14:28:06.816Z,99952.41
2022-12-05T14:31:12.553Z,99958.75
2022-12-05T14:33:40.755Z,99934.28
2022-12-05T14:36:19.323Z,99830.06
2022-12-05T14:38:47.539Z,99897.03
2022-12-05T14:41:33.862Z,99940.03
2022-12-05T14:44:08.370Z,99942.81
2022-12-05T14:46:36.968Z,99920.41
2022-12-05T14:49:54.823Z,99940.41
2022-12-05T14:52:27.860Z,99893.50
2022-12-05T14:55:03.676Z,99934.28
2022-12-05T14:57:36.311Z,99922.56
2022-12-05T15:00:07.937Z,99928.25
2022-12-05T15:02:45.839Z,99894.19
2022-12-05T15:05:34.727Z,99932.34
2022-12-05T15:08:05.183Z,99921.25
2022-12-05T15:10:38.229Z,99919.13
2022-12-05T15:13:16.079Z,99908.13
2022-12-05T15:15:52.290Z,99922.84
2022-12-05T15:18:44.768Z,99871.50
2022-12-05T15:21:39.587Z,99916.50
2022-12-05T15:24:20.170Z,99881.84
2022-12-05T15:26:55.917Z,99919.81
2022-12-05T15:29:23.947Z,99865.06
2022-12-05T15:32:06.528Z,99915.13
2022-12-05T15:34:40.549Z,99886.06
2022-12-05T15:37:36.785Z,99912.50
2022-12-05T15:40:07.962Z,99863.22
2022-12-05T15:42:48.998Z,99891.88
2022-12-05T15:45:29.788Z,99921.16
2022-12-05T15:48:17.256Z,99890.19
2022-12-05T15:50:53.738Z,99921.38
2022-12-05T15:53:54.231Z,99892.94
2022-12-05T15:56:28.535Z,99902.50
2022-12-05T15:59:25.577Z,99857.06
2022-12-05T16:02:17.291Z,99711.97
2022-12-05T16:04:52.971Z,99852.38
2022-12-05T16:07:26.088Z,99899.28
2022-12-05T16:09:59.077Z,99900.56
2022-12-05T16:12:41.950Z,99853.19
2022-12-05T16:15:28.962Z,99856.59
2022-12-05T16:18:01.267Z,99873.78
2022-12-05T16:20:37.412Z,99881.38
2022-12-05T16:23:33.659Z,99900.31
2022-12-05T16:26:23.789Z,99873.34
2022-12-05T16:29:03.232Z,99894.50
2022-12-05T16:31:34.990Z,99883.50
2022-12-05T16:34:16.273Z,99858.78
2022-12-05T16:36:49.768Z,99828.13
2022-12-05T16:39:19.978Z,99877.19
2022-12-05T16:41:49.237Z,99790.84
2022-12-05T16:44:46.864Z,99843.69
2022-12-05T16:47:27.393Z,99872.16
2022-12-05T16:49:56.916Z,99753.75
2022-12-05T16:52:31.512Z,99782.38
2022-12-05T16:55:02.549Z,99775.63
2022-12-05T16:57:33.443Z,99820.47
2022-12-05T17:00:06.446Z,99821.63
2022-12-05T17:02:38.212Z,99880.66
2022-12-05T17:05:14.711Z,99846.75
2022-12-05T17:07:42.811Z,99818.72
2022-12-05T17:10:11.180Z,99839.03
2022-12-05T17:12:42.288Z,99856.91
2022-12-05T17:15:19.331Z,99735.44
2022-12-05T17:17:47.872Z,99864.28
2022-12-05T17:20:16.337Z,99884.56
2022-12-05T17:22:44.768Z,99870.16
2022-12-05T17:25:31.284Z,99868.53
2022-12-05T17:27:59.768Z,99869.59
2022-12-05T17:30:27.813Z,99863.47
2022-12-05T17:32:55.906Z,99833.63
2022-12-05T17:35:25.252Z,99853.06
2022-12-05T17:37:53.236Z,99870.47
2022-12-05T17:40:21.431Z,99868.44
2022-12-05T17:42:49.430Z,99871.25
2022-12-05T17:45:17.447Z,99865.06
2022-12-05T17:47:45.595Z,99868.28
2022-12-05T17:50:18.747Z,99847.22
2022-12-05T17:52:46.974Z,99868.44
2022-12-05T17:55:20.642Z,99864.91
2022-12-05T17:57:49.280Z,99772.75
2022-12-05T18:00:18.940Z,99868.28
2022-12-05T18:02:47.412Z,99874.31
2022-12-05T18:05:16.947Z,99870.44
2022-12-05T18:07:46.105Z,99814.00
2022-12-05T18:10:20.293Z,99873.53
2022-12-05T18:12:49.308Z,99857.19
2022-12-05T18:15:18.045Z,99870.91
2022-12-05T18:17:46.376Z,99804.94
2022-12-05T18:20:16.006Z,99813.03
2022-12-05T18:22:44.115Z,99870.63
2022-12-05T18:25:12.511Z,99849.78
2022-12-05T18:27:40.777Z,99861.22
2022-12-05T18:30:09.378Z,99817.03
2022-12-05T18:32:37.923Z,99851.44
2022-12-05T18:35:12.720Z,99836.44
2022-12-05T18:37:41.374Z,99799.25
2022-12-05T18:40:11.334Z,99857.19
2022-12-05T18:42:39.383Z,99854.06
2022-12-05T18:45:08.339Z,99810.00
2022-12-05T18:47:36.545Z,99838.97
2022-12-05T18:50:05.556Z,99853.53
2022-12-05T18:52:35.648Z,99851.13
2022-12-05T18:55:16.879Z,99859.63
2022-12-05T18:57:46.201Z,99855.97
2022-12-05T19:00:16.998Z,99704.91
2022-12-05T19:02:48.371Z,99782.94
2022-12-05T19:05:18.016Z,99846.75
2022-12-05T19:07:46.732Z,99840.59
2022-12-05T19:10:15.074Z,99815.63
2022-12-05T19:12:43.162Z,99846.44
2022-12-05T19:15:11.771Z,99832.03
2022-12-05T19:17:39.850Z,99848.97
2022-12-05T19:20:08.725Z,99764.81
2022-12-05T19:22:36.941Z,99867.25
2022-12-05T19:25:05.711Z,99863.84
2022-12-05T19:27:33.846Z,99853.53
2022-12-05T19:30:06.567Z,99860.44
2022-12-05T19:32:40.346Z,99865.69
2022-12-05T19:35:09.221Z,99856.16
2022-12-05T19:37:37.279Z,99866.25
2022-12-05T19:40:09.331Z,99844.84
2022-12-05T19:42:37.400Z,99694.28
2022-12-05T19:45:08.927Z,99853.47
2022-12-05T19:47:38.738Z,99866.81
2022-12-05T19:50:07.215Z,99865.94
2022-12-05T19:52:35.102Z,99854.09
2022-12-05T19:55:04.418Z,99851.53
2022-12-05T19:57:32.368Z,99813.66
2022-12-05T20:00:00.628Z,99864.56
2022-12-05T20:02:28.976Z,99814.13
2022-12-05T20:04:57.324Z,99847.47
2022-12-05T20:07:25.295Z,99840.44
2022-12-05T20:09:54.764Z,99839.06
2022-12-05T20:12:25.700Z,99838.59
2022-12-05T20:14:53.548Z,99798.84
2022-12-05T20:17:23.639Z,99783.38
2022-12-05T20:19:52.098Z,99841.16
2022-12-05T20:22:20.425Z,99842.66
2022-12-05T20:24:48.706Z,99826.34
2022-12-05T20:27:18.972Z,99789.31
2022-12-05T20:29:47.269Z,99831.19
2022-12-05T20:32:16.027Z,99827.34
2022-12-05T20:34:44.325Z,99824.56
2022-12-05T20:37:12.311Z,99830.25
2022-12-05T20:39:40.478Z,99802.69
2022-12-05T20:42:08.494Z,99834.66
2022-12-05T20:44:37.475Z,99834.06
2022-12-05T20:47:08.441Z,99827.88
2022-12-05T20:49:39.714Z,99816.88
2022-12-05T20:52:09.341Z,99831.00
2022-12-05T20:54:38.004Z,99829.97
2022-12-05T20:57:08.886Z,99838.28
2022-12-05T20:59:38.248Z,99814.19
2022-12-05T21:02:06.876Z,99843.00
2022-12-05T21:04:39.334Z,99809.19
2022-12-05T21:07:08.019Z,99835.91
2022-12-05T21:09:45.775Z,99825.50
2022-12-05T21:12:25.581Z,99827.03
2022-12-05T21:14:59.611Z,99730.19
2022-12-05T21:17:46.078Z,99657.94
2022-12-05T21:20:31.278Z,99671.25
2022-12-05T21:23:08.672Z,99721.56
2022-12-05T21:25:48.172Z,99722.59
2022-12-05T21:28:19.811Z,99771.69
2022-12-05T21:30:55.045Z,99681.41
2022-12-05T21:33:40.476Z,99775.44
2022-12-05T21:36:10.586Z,99662.03
2022-12-05T21:38:55.646Z,99691.25
2022-12-05T21:41:40.092Z,99613.88
2022-12-05T21:44:09.728Z,99625.03
2022-12-05T21:46:46.265Z,99716.41
2022-12-05T21:49:21.380Z,99700.13
2022-12-05T21:52:01.485Z,99783.44
2022-12-05T21:54:34.707Z,99725.28
2022-12-05T21:57:13.202Z,99720.41
2022-12-05T22:00:15.164Z,99682.03
2022-12-05T22:02:54.757Z,99696.72
2022-12-05T22:05:32.942Z,99694.88
2022-12-05T22:08:08.042Z,99645.25
2022-12-05T22:10:58.465Z,99701.50
2022-12-05T22:13:38.640Z,99788.22
2022-12-05T22:16:33.403Z,99798.69
2022-12-05T22:19:15.214Z,99607.03
2022-12-05T22:21:49.092Z,99621.66
2022-12-05T22:24:29.728Z,99747.81
2022-12-05T22:27:05.714Z,99625.66
2022-12-05T22:29:49.813Z,99710.78
2022-12-05T22:32:24.238Z,99680.94
2022-12-05T22:35:09.028Z,99691.25
2022-12-05T22:37:51.181Z,99742.00
2022-12-05T22:40:22.997Z,99677.41
2022-12-05T22:43:11.744Z,99651.09
2022-12-05T22:45:52.031Z,99696.31
2022-12-05T22:48:31.435Z,99642.38
2022-12-05T22:51:03.337Z,99737.06
2022-12-05T22:53:40.090Z,99690.91
2022-12-05T22:56:26.847Z,99619.69
2022-12-05T22:59:02.308Z,99732.91
2022-12-05T23:01:58.339Z,99648.41
2022-12-05T23:04:35.293Z,99636.28
2022-12-05T23:07:10.398Z,99587.66
2022-12-05T23:09:51.276Z,99653.88
2022-12-05T23:12:25.500Z,99642.41
2022-12-05T23:14:54.319Z,99618.81
2022-12-05T23:17:38.463Z,99613.50
2022-12-05T23:20:18.000Z,99582.81
2022-12-05T23:22:52.327Z,99548.41
2022-12-05T23:25:28.485Z,99737.78
2022-12-05T23:28:11.477Z,99563.38
2022-12-05T23:30:45.896Z,99618.59
2022-12-05T23:33:20.690Z,99526.31
2022-12-05T23:36:18.208Z,99536.94
2022-12-05T23:38:53.714Z,99639.56
2022-12-05T23:41:24.760Z,99628.28
2022-12-05T23:43:57.125Z,99636.34
2022-12-05T23:46:30.579Z,99685.78
2022-12-05T23:49:13.245Z,99561.19
2022-12-05T23:51:48.906Z,99589.41
2022-12-05T23:54:22.109Z,99631.47
2022-12-05T23:57:14.673Z,99607.53
